createdAt,value
2023-02-21T00:02:33.976Z,100467.41
2023-02-21T00:05:19.018Z,100465.81
2023-02-21T00:08:03.865Z,100468.34
2023-02-21T00:10:48.677Z,100460.16
2023-02-21T00:13:33.853Z,100454.56
2023-02-21T00:16:18.695Z,100458.69
2023-02-21T00:19:03.344Z,100452.09
2023-02-21T00:21:48.636Z,100449.03
2023-02-21T00:24:34.802Z,100453.34
2023-02-21T00:27:19.532Z,100447.19
2023-02-21T00:30:05.896Z,100454.81
2023-02-21T00:32:51.896Z,100458.09
2023-02-21T00:35:36.975Z,100463.09
2023-02-21T00:38:22.993Z,100457.56
2023-02-21T00:41:08.727Z,100452.63
2023-02-21T00:43:54.383Z,100445.72
2023-02-21T00:46:39.547Z,100456.13
2023-02-21T00:49:24.809Z,100452.28
2023-02-21T00:52:10.054Z,100456.75
2023-02-21T00:54:54.693Z,100453.31
2023-02-21T00:57:40.046Z,100442.28
2023-02-21T01:00:25.814Z,100447.19
2023-02-21T01:03:10.614Z,100441.38
2023-02-21T01:05:55.309Z,100454.22
2023-02-21T01:08:40.020Z,100449.25
2023-02-21T01:11:24.952Z,100446.59
2023-02-21T01:14:09.658Z,100447.94
2023-02-21T01:16:57.286Z,100454.91
2023-02-21T01:19:45.332Z,100433.97
2023-02-21T01:22:30.157Z,100441.72
2023-02-21T01:25:14.939Z,100444.78
2023-02-21T01:27:59.646Z,100438.50
2023-02-21T01:30:44.571Z,100449.91
2023-02-21T01:33:30.198Z,100439.56
2023-02-21T01:36:14.993Z,100434.78
2023-02-21T01:38:59.707Z,100437.59
2023-02-21T01:41:44.940Z,100430.44
2023-02-21T01:44:50.055Z,100424.69
2023-02-21T01:47:35.233Z,100430.69
2023-02-21T01:50:22.459Z,100428.41
2023-02-21T01:53:08.393Z,100425.78
2023-02-21T01:55:56.087Z,100428.06
2023-02-21T01:58:42.801Z,100433.97
2023-02-21T02:01:29.595Z,100423.19
2023-02-21T02:04:15.295Z,100439.41
2023-02-21T02:07:00.158Z,100439.09
2023-02-21T02:09:44.976Z,100421.69
2023-02-21T02:12:25.077Z,100430.44
2023-02-21T02:15:09.705Z,100432.59
2023-02-21T02:17:47.851Z,100422.16
2023-02-21T02:20:38.302Z,100425.13
2023-02-21T02:23:24.856Z,100420.91
2023-02-21T02:25:53.888Z,100417.16
2023-02-21T02:28:35.496Z,100423.03
2023-02-21T02:31:08.041Z,100419.88
2023-02-21T02:33:34.411Z,100412.16
2023-02-21T02:36:00.730Z,100409.06
2023-02-21T02:38:33.158Z,100407.50
2023-02-21T02:41:14.948Z,100407.03
2023-02-21T02:43:46.925Z,100412.44
2023-02-21T02:46:13.201Z,100408.59
2023-02-21T02:48:53.582Z,100401.81
2023-02-21T02:51:20.405Z,100402.25
2023-02-21T02:53:46.682Z,100408.19
2023-02-21T02:56:16.619Z,100409.31
2023-02-21T02:59:06.296Z,100420.34
2023-02-21T03:01:47.885Z,100421.16
2023-02-21T03:04:29.530Z,100423.97
2023-02-21T03:07:11.249Z,100426.38
2023-02-21T03:09:37.545Z,100428.59
2023-02-21T03:12:16.636Z,100430.78
2023-02-21T03:15:01.633Z,100429.41
2023-02-21T03:17:29.935Z,100423.50
2023-02-21T03:19:57.740Z,100413.38
2023-02-21T03:22:26.651Z,100422.50
2023-02-21T03:24:54.323Z,100421.44
2023-02-21T03:27:22.402Z,100428.41
2023-02-21T03:29:48.782Z,100417.38
2023-02-21T03:32:15.081Z,100414.66
2023-02-21T03:34:42.220Z,100421.44
2023-02-21T03:37:10.030Z,100420.66
2023-02-21T03:39:36.432Z,100422.03
2023-02-21T03:42:02.873Z,100427.84
2023-02-21T03:44:29.169Z,100419.06
2023-02-21T03:46:55.562Z,100425.09
2023-02-21T03:49:21.884Z,100421.34
2023-02-21T03:51:48.341Z,100422.44
2023-02-21T03:54:14.677Z,100428.50
2023-02-21T03:56:42.429Z,100425.75
2023-02-21T03:59:09.154Z,100431.34
2023-02-21T04:01:35.520Z,100448.06
2023-02-21T04:04:01.816Z,100454.09
2023-02-21T04:06:28.298Z,100454.00
2023-02-21T04:08:54.673Z,100463.69
2023-02-21T04:11:22.168Z,100463.34
2023-02-21T04:13:48.551Z,100466.38
2023-02-21T04:16:14.902Z,100463.19
2023-02-21T04:18:41.208Z,100458.88
2023-02-21T04:21:07.572Z,100473.06
2023-02-21T04:23:33.864Z,100474.00
2023-02-21T04:26:00.145Z,100467.97
2023-02-21T04:28:26.423Z,100474.91
2023-02-21T04:30:52.712Z,100471.19
2023-02-21T04:33:18.998Z,100483.69
2023-02-21T04:35:45.356Z,100482.31
2023-02-21T04:38:11.687Z,100478.22
2023-02-21T04:40:37.958Z,100490.63
2023-02-21T04:43:04.268Z,100490.19
2023-02-21T04:45:30.618Z,100480.19
2023-02-21T04:47:56.944Z,100485.03
2023-02-21T04:50:23.233Z,100494.94
2023-02-21T04:52:50.173Z,100495.16
2023-02-21T04:55:16.497Z,100487.78
2023-02-21T04:57:42.804Z,100489.94
2023-02-21T05:00:10.713Z,100495.84
2023-02-21T05:02:36.979Z,100488.94
2023-02-21T05:05:03.390Z,100499.03
2023-02-21T05:07:29.735Z,100498.03
2023-02-21T05:09:56.044Z,100496.50
2023-02-21T05:12:22.397Z,100485.97
2023-02-21T05:14:48.742Z,100489.59
2023-02-21T05:17:15.080Z,100498.47
2023-02-21T05:19:41.366Z,100489.50
2023-02-21T05:22:07.904Z,100483.13
2023-02-21T05:24:34.510Z,100485.16
2023-02-21T05:27:01.101Z,100490.84
2023-02-21T05:29:27.571Z,100497.78
2023-02-21T05:31:53.894Z,100494.34
2023-02-21T05:34:20.317Z,100501.78
2023-02-21T05:36:47.049Z,100494.28
2023-02-21T05:39:13.464Z,100502.13
2023-02-21T05:41:45.737Z,100506.31
2023-02-21T05:44:12.096Z,100501.09
2023-02-21T05:46:38.392Z,100510.19
2023-02-21T05:49:06.082Z,100505.19
2023-02-21T05:51:37.060Z,100509.75
2023-02-21T05:54:03.822Z,100513.84
2023-02-21T05:56:30.112Z,100516.00
2023-02-21T05:58:56.526Z,100510.22
2023-02-21T06:01:22.877Z,100518.19
2023-02-21T06:03:49.297Z,100517.97
2023-02-21T06:06:16.011Z,100524.91
2023-02-21T06:08:45.702Z,100517.97
2023-02-21T06:11:12.179Z,100530.91
2023-02-21T06:13:38.584Z,100532.97
2023-02-21T06:16:05.094Z,100539.13
2023-02-21T06:18:31.432Z,100539.13
2023-02-21T06:20:57.858Z,100541.50
2023-02-21T06:23:24.167Z,100541.28
2023-02-21T06:25:50.480Z,100550.97
2023-02-21T06:28:17.781Z,100550.59
2023-02-21T06:30:44.257Z,100548.78
2023-02-21T06:33:10.698Z,100544.38
2023-02-21T06:35:37.018Z,100551.34
2023-02-21T06:38:03.440Z,100560.97
2023-02-21T06:40:29.820Z,100566.53
2023-02-21T06:42:56.164Z,100568.69
2023-02-21T06:45:22.484Z,100566.09
2023-02-21T06:47:48.765Z,100573.94
2023-02-21T06:50:15.122Z,100579.19
2023-02-21T06:52:41.420Z,100580.75
2023-02-21T06:55:07.732Z,100571.88
2023-02-21T06:57:34.068Z,100587.47
2023-02-21T07:00:00.353Z,100589.75
2023-02-21T07:02:26.745Z,100601.16
2023-02-21T07:04:53.068Z,100601.13
2023-02-21T07:07:19.418Z,100608.41
2023-02-21T07:09:45.696Z,100626.84
2023-02-21T07:12:11.997Z,100632.78
2023-02-21T07:14:38.287Z,100631.28
2023-02-21T07:17:04.602Z,100633.47
2023-02-21T07:19:31.004Z,100642.69
2023-02-21T07:21:57.350Z,100627.44
2023-02-21T07:24:23.664Z,100649.63
2023-02-21T07:26:50.201Z,100644.72
2023-02-21T07:29:17.339Z,100646.00
2023-02-21T07:31:43.820Z,100659.09
2023-02-21T07:34:12.052Z,100660.66
2023-02-21T07:36:40.150Z,100659.41
2023-02-21T07:39:06.810Z,100661.13
2023-02-21T07:41:33.350Z,100664.06
2023-02-21T07:43:59.705Z,100680.22
2023-02-21T07:46:27.351Z,100677.72
2023-02-21T07:48:54.095Z,100682.50
2023-02-21T07:51:20.523Z,100678.41
2023-02-21T07:53:46.832Z,100688.22
2023-02-21T07:56:13.427Z,100695.84
2023-02-21T07:58:39.743Z,100697.78
2023-02-21T08:01:06.823Z,100711.91
2023-02-21T08:03:33.189Z,100731.03
2023-02-21T08:05:59.780Z,100725.03
2023-02-21T08:08:26.171Z,100726.44
2023-02-21T08:10:52.491Z,100727.75
2023-02-21T08:13:18.837Z,100732.31
2023-02-21T08:15:45.261Z,100730.41
2023-02-21T08:18:18.566Z,100739.50
2023-02-21T08:20:44.878Z,100743.59
2023-02-21T08:23:11.235Z,100737.56
2023-02-21T08:25:37.550Z,100745.75
2023-02-21T08:28:03.878Z,100734.28
2023-02-21T08:30:30.240Z,100735.28
2023-02-21T08:32:56.781Z,100733.22
2023-02-21T08:35:23.324Z,100733.81
2023-02-21T08:37:50.667Z,100747.00
2023-02-21T08:40:20.404Z,100751.22
2023-02-21T08:42:53.343Z,100751.94
2023-02-21T08:45:20.602Z,100747.94
2023-02-21T08:47:47.049Z,100755.69
2023-02-21T08:50:13.973Z,100757.44
2023-02-21T08:52:40.328Z,100758.78
2023-02-21T08:55:06.995Z,100765.41
2023-02-21T08:57:34.601Z,100769.06
2023-02-21T09:00:01.189Z,100770.97
2023-02-21T09:02:31.314Z,100773.94
2023-02-21T09:04:57.646Z,100778.41
2023-02-21T09:07:24.095Z,100785.69
2023-02-21T09:09:50.463Z,100785.00
2023-02-21T09:12:17.220Z,100784.84
2023-02-21T09:14:44.030Z,100790.16
2023-02-21T09:17:11.920Z,100794.63
2023-02-21T09:19:38.347Z,100794.03
2023-02-21T09:22:06.504Z,100802.88
2023-02-21T09:24:32.812Z,100811.41
2023-02-21T09:27:00.027Z,100823.16
2023-02-21T09:29:31.605Z,100813.19
2023-02-21T09:31:58.098Z,100817.78
2023-02-21T09:34:24.514Z,100828.28
2023-02-21T09:36:50.919Z,100829.66
2023-02-21T09:39:17.731Z,100842.88
2023-02-21T09:41:44.557Z,100838.22
2023-02-21T09:44:13.849Z,100838.00
2023-02-21T09:46:42.432Z,100843.75
2023-02-21T09:49:21.652Z,100854.53
2023-02-21T09:51:49.027Z,100856.25
2023-02-21T09:54:35.576Z,100861.59
2023-02-21T09:57:03.654Z,100874.97
2023-02-21T09:59:30.019Z,100876.66
2023-02-21T10:02:02.077Z,100883.97
2023-02-21T10:04:34.557Z,100873.38
2023-02-21T10:07:06.460Z,100893.47
2023-02-21T10:09:38.729Z,100888.97
2023-02-21T10:12:11.086Z,100884.94
2023-02-21T10:14:37.343Z,100884.66
2023-02-21T10:17:26.971Z,100879.97
2023-02-21T10:19:55.282Z,100890.34
2023-02-21T10:22:26.910Z,100887.69
2023-02-21T10:24:53.939Z,100904.78
2023-02-21T10:27:22.248Z,100903.44
2023-02-21T10:29:52.089Z,100900.44
2023-02-21T10:32:18.797Z,100911.50
2023-02-21T10:34:47.430Z,100905.81
2023-02-21T10:37:17.076Z,100894.53
2023-02-21T10:39:46.286Z,100909.69
2023-02-21T10:42:14.771Z,100898.03
2023-02-21T10:44:41.321Z,100905.25
2023-02-21T10:47:13.488Z,100912.06
2023-02-21T10:49:58.067Z,100909.22
2023-02-21T10:52:24.365Z,100903.84
2023-02-21T10:55:05.634Z,100908.78
2023-02-21T10:57:33.713Z,100913.53
2023-02-21T11:00:01.721Z,100893.84
2023-02-21T11:02:30.510Z,100916.41
2023-02-21T11:05:06.726Z,100912.19
2023-02-21T11:07:33.047Z,100915.72
2023-02-21T11:09:59.448Z,100909.38
2023-02-21T11:12:26.784Z,100906.50
2023-02-21T11:14:53.108Z,100904.38
2023-02-21T11:17:19.449Z,100911.22
2023-02-21T11:19:51.871Z,100905.47
2023-02-21T11:22:21.601Z,100918.13
2023-02-21T11:24:57.712Z,100910.53
2023-02-21T11:27:24.450Z,100917.16
2023-02-21T11:29:52.490Z,100910.59
2023-02-21T11:32:38.641Z,100912.66
2023-02-21T11:35:05.035Z,100921.97
2023-02-21T11:37:32.355Z,100919.88
2023-02-21T11:40:00.954Z,100919.41
2023-02-21T11:42:31.591Z,100919.19
2023-02-21T11:45:13.906Z,100927.56
2023-02-21T11:47:46.033Z,100910.44
2023-02-21T11:50:22.276Z,100921.75
2023-02-21T11:52:48.545Z,100915.25
2023-02-21T11:55:19.706Z,100922.16
2023-02-21T11:58:03.051Z,100924.16
2023-02-21T12:00:34.831Z,100918.97
2023-02-21T12:03:13.730Z,100920.03
2023-02-21T12:05:58.692Z,100912.72
2023-02-21T12:08:31.216Z,100913.75
2023-02-21T12:11:10.587Z,100925.81
2023-02-21T12:13:36.950Z,100935.34
2023-02-21T12:16:03.336Z,100923.81
2023-02-21T12:18:38.601Z,100926.75
2023-02-21T12:21:10.984Z,100933.97
2023-02-21T12:23:55.597Z,100933.09
2023-02-21T12:26:40.900Z,100934.53
2023-02-21T12:29:30.938Z,100937.63
2023-02-21T12:32:05.526Z,100938.50
2023-02-21T12:34:37.966Z,100933.88
2023-02-21T12:37:13.356Z,100938.28
2023-02-21T12:39:39.732Z,100933.88
2023-02-21T12:42:15.594Z,100949.03
2023-02-21T12:44:54.181Z,100939.22
2023-02-21T12:47:30.125Z,100934.19
2023-02-21T12:50:02.489Z,100927.50
2023-02-21T12:52:34.862Z,100942.47
2023-02-21T12:55:07.086Z,100941.63
2023-02-21T12:57:44.084Z,100940.38
2023-02-21T13:00:28.969Z,100946.63
2023-02-21T13:03:01.336Z,100949.94
2023-02-21T13:05:33.872Z,100946.38
2023-02-21T13:08:02.145Z,100957.78
2023-02-21T13:10:32.554Z,100955.06
2023-02-21T13:13:02.339Z,100952.25
2023-02-21T13:15:30.520Z,100953.25
2023-02-21T13:17:56.967Z,100961.56
2023-02-21T13:20:26.675Z,100954.38
2023-02-21T13:23:30.404Z,100954.22
2023-02-21T13:26:11.787Z,100962.69
2023-02-21T13:28:38.937Z,100955.28
2023-02-21T13:31:07.839Z,100957.44
2023-02-21T13:33:44.741Z,100958.94
2023-02-21T13:36:29.847Z,100958.59
2023-02-21T13:38:59.169Z,100959.00
2023-02-21T13:41:28.489Z,100952.97
2023-02-21T13:43:55.943Z,100952.88
2023-02-21T13:46:45.314Z,100943.03
2023-02-21T13:49:30.392Z,100960.50
2023-02-21T13:52:14.253Z,100952.38
2023-02-21T13:54:59.462Z,100952.75
2023-02-21T13:57:29.889Z,100945.56
2023-02-21T13:59:56.202Z,100948.63
2023-02-21T14:02:26.758Z,100959.91
2023-02-21T14:05:00.390Z,100960.38
2023-02-21T14:07:42.028Z,100965.28
2023-02-21T14:10:25.734Z,100954.22
2023-02-21T14:12:57.447Z,100952.53
2023-02-21T14:15:23.954Z,100949.66
2023-02-21T14:17:51.248Z,100947.50
2023-02-21T14:20:20.447Z,100964.66
2023-02-21T14:22:49.770Z,100974.13
2023-02-21T14:25:21.427Z,100963.13
2023-02-21T14:27:47.725Z,100965.31
2023-02-21T14:30:26.808Z,100969.00
2023-02-21T14:32:54.983Z,100964.22
2023-02-21T14:35:43.065Z,100964.31
2023-02-21T14:38:19.162Z,100965.13
2023-02-21T14:40:59.323Z,100959.84
2023-02-21T14:43:40.129Z,100948.47
2023-02-21T14:46:12.450Z,100967.84
2023-02-21T14:48:50.964Z,100960.44
2023-02-21T14:51:20.377Z,100953.25
2023-02-21T14:54:05.576Z,100959.03
2023-02-21T14:56:50.156Z,100961.91
2023-02-21T14:59:35.235Z,100950.88
2023-02-21T15:02:13.397Z,100949.72
2023-02-21T15:04:43.387Z,100954.59
2023-02-21T15:07:23.478Z,100957.25
2023-02-21T15:10:06.671Z,100959.28
2023-02-21T15:12:35.909Z,100966.34
2023-02-21T15:15:02.602Z,100963.88
2023-02-21T15:17:30.420Z,100959.03
2023-02-21T15:20:05.784Z,100958.81
2023-02-21T15:22:32.416Z,100967.81
2023-02-21T15:24:58.759Z,100964.28
2023-02-21T15:27:25.126Z,100968.16
2023-02-21T15:30:08.606Z,100975.56
2023-02-21T15:32:36.163Z,100970.78
2023-02-21T15:35:06.791Z,100958.75
2023-02-21T15:37:35.070Z,100968.59
2023-02-21T15:40:05.608Z,100969.28
2023-02-21T15:42:32.726Z,100971.34
2023-02-21T15:45:01.321Z,100970.91
2023-02-21T15:47:30.441Z,100962.91
2023-02-21T15:50:19.769Z,100968.81
2023-02-21T15:52:48.939Z,100954.16
2023-02-21T15:55:18.043Z,100961.59
2023-02-21T15:57:45.057Z,100969.84
2023-02-21T16:00:17.438Z,100968.81
2023-02-21T16:02:43.792Z,100973.94
2023-02-21T16:05:36.211Z,100975.06
2023-02-21T16:08:04.589Z,100976.47
2023-02-21T16:10:31.538Z,100980.13
2023-02-21T16:12:59.838Z,100984.53
2023-02-21T16:15:31.149Z,100976.16
2023-02-21T16:18:00.239Z,100987.41
2023-02-21T16:20:29.548Z,100989.69
2023-02-21T16:23:14.717Z,100977.22
2023-02-21T16:26:00.262Z,100989.59
2023-02-21T16:28:27.031Z,100996.38
2023-02-21T16:30:55.379Z,100985.31
2023-02-21T16:33:21.891Z,100976.78
2023-02-21T16:35:48.232Z,100981.66
2023-02-21T16:38:16.583Z,100995.75
2023-02-21T16:40:43.011Z,100997.34
2023-02-21T16:43:15.306Z,100993.50
2023-02-21T16:45:42.025Z,101010.84
2023-02-21T16:48:14.591Z,101002.19
2023-02-21T16:50:41.146Z,101013.44
2023-02-21T16:53:07.813Z,101018.91
2023-02-21T16:55:34.119Z,101017.16
2023-02-21T16:58:05.435Z,101014.25
2023-02-21T17:00:32.446Z,101016.38
2023-02-21T17:02:59.068Z,101011.72
2023-02-21T17:05:25.901Z,101018.75
2023-02-21T17:07:55.681Z,101024.09
2023-02-21T17:10:22.150Z,101018.47
2023-02-21T17:12:48.532Z,101022.19
2023-02-21T17:15:14.962Z,101028.31
2023-02-21T17:17:42.881Z,101036.19
2023-02-21T17:20:15.175Z,101031.41
2023-02-21T17:22:41.465Z,101038.69
2023-02-21T17:25:08.294Z,101036.53
2023-02-21T17:27:34.696Z,101036.28
2023-02-21T17:30:01.199Z,101038.00
2023-02-21T17:32:27.655Z,101037.91
2023-02-21T17:34:53.948Z,101037.69
2023-02-21T17:37:20.317Z,101034.84
2023-02-21T17:39:46.623Z,101030.56
2023-02-21T17:42:12.927Z,101030.34
2023-02-21T17:47:14.292Z,101034.59
2023-02-21T17:49:40.548Z,101046.78
2023-02-21T17:52:06.820Z,101048.25
2023-02-21T17:54:33.212Z,101051.47
2023-02-21T17:56:59.476Z,101050.78
2023-02-21T17:59:25.730Z,101050.50
2023-02-21T18:01:55.528Z,101057.75
2023-02-21T18:04:22.196Z,101056.47
2023-02-21T18:06:48.509Z,101055.81
2023-02-21T18:09:14.775Z,101054.38
2023-02-21T18:11:41.040Z,101059.84
2023-02-21T18:14:07.376Z,101056.44
2023-02-21T18:16:33.661Z,101060.13
2023-02-21T18:18:59.937Z,101054.06
2023-02-21T18:21:27.393Z,101053.72
2023-02-21T18:23:54.356Z,101053.09
2023-02-21T18:26:20.629Z,101059.84
2023-02-21T18:28:46.875Z,101067.03
2023-02-21T18:31:17.057Z,101056.28
2023-02-21T18:33:43.730Z,101060.50
2023-02-21T18:36:10.317Z,101051.66
2023-02-21T18:38:38.850Z,101044.59
2023-02-21T18:41:09.267Z,101055.38
2023-02-21T18:43:35.501Z,101063.22
2023-02-21T18:46:01.852Z,101059.72
2023-02-21T18:48:28.198Z,101053.13
2023-02-21T18:50:54.593Z,101062.56
2023-02-21T18:53:21.320Z,101063.09
2023-02-21T18:55:47.616Z,101065.63
2023-02-21T18:58:14.027Z,101058.25
2023-02-21T19:00:40.826Z,101064.03
2023-02-21T19:03:08.025Z,101062.75
2023-02-21T19:05:34.672Z,101066.13
2023-02-21T19:08:01.296Z,101068.53
2023-02-21T19:10:28.508Z,101064.69
2023-02-21T19:12:54.910Z,101063.88
2023-02-21T19:15:21.709Z,101060.03
2023-02-21T19:17:50.150Z,101073.06
2023-02-21T19:20:19.358Z,101067.13
2023-02-21T19:22:46.241Z,101063.56
2023-02-21T19:25:13.015Z,101070.00
2023-02-21T19:27:39.311Z,101069.19
2023-02-21T19:30:07.751Z,101075.09
2023-02-21T19:32:36.365Z,101078.16
2023-02-21T19:35:03.120Z,101065.28
2023-02-21T19:37:29.429Z,101080.00
2023-02-21T19:39:55.706Z,101071.72
2023-02-21T19:42:21.952Z,101073.19
2023-02-21T19:44:48.345Z,101079.25
2023-02-21T19:47:14.624Z,101081.41
2023-02-21T19:49:45.694Z,101079.47
2023-02-21T19:52:12.167Z,101083.78
2023-02-21T19:54:38.425Z,101088.63
2023-02-21T19:57:04.796Z,101087.91
2023-02-21T19:59:31.131Z,101086.56
2023-02-21T20:01:57.573Z,101089.75
2023-02-21T20:04:24.029Z,101082.09
2023-02-21T20:06:50.656Z,101084.63
2023-02-21T20:09:17.040Z,101089.84
2023-02-21T20:11:43.385Z,101087.47
2023-02-21T20:14:11.030Z,101086.25
2023-02-21T20:16:41.195Z,101081.50
2023-02-21T20:19:07.963Z,101080.69
2023-02-21T20:21:34.703Z,101083.31
2023-02-21T20:24:01.338Z,101095.19
2023-02-21T20:26:28.377Z,101091.63
2023-02-21T20:28:55.166Z,101096.75
2023-02-21T20:31:23.921Z,101093.88
2023-02-21T20:33:50.247Z,101091.84
2023-02-21T20:36:16.530Z,101097.28
2023-02-21T20:38:42.893Z,101090.66
2023-02-21T20:41:11.031Z,101096.09
2023-02-21T20:43:37.462Z,101098.41
2023-02-21T20:46:04.195Z,101097.38
2023-02-21T20:48:32.205Z,101101.53
2023-02-21T20:51:02.270Z,101101.72
2023-02-21T20:53:29.103Z,101099.28
2023-02-21T20:55:55.520Z,101106.94
2023-02-21T20:58:22.385Z,101094.38
2023-02-21T21:00:49.571Z,101088.66
2023-02-21T21:03:19.036Z,101099.72
2023-02-21T21:05:48.013Z,101106.53
2023-02-21T21:08:14.416Z,101103.72
2023-02-21T21:10:42.203Z,101100.41
2023-02-21T21:13:08.544Z,101099.19
2023-02-21T21:15:34.975Z,101105.34
2023-02-21T21:18:01.415Z,101105.03
2023-02-21T21:20:27.859Z,101107.16
2023-02-21T21:22:54.267Z,101106.03
2023-02-21T21:25:22.482Z,101111.38
2023-02-21T21:27:49.325Z,101104.94
2023-02-21T21:30:22.416Z,101109.88
2023-02-21T21:32:49.599Z,101112.59
2023-02-21T21:35:17.123Z,101113.97
2023-02-21T21:37:43.406Z,101118.38
2023-02-21T21:40:19.203Z,101119.38
2023-02-21T21:42:48.724Z,101115.19
2023-02-21T21:45:18.361Z,101123.81
2023-02-21T21:47:45.732Z,101121.47
2023-02-21T21:50:15.466Z,101119.13
2023-02-21T21:52:43.322Z,101123.53
2023-02-21T21:55:16.317Z,101119.25
2023-02-21T21:57:42.666Z,101123.31
2023-02-21T22:00:24.426Z,101120.84
2023-02-21T22:02:51.845Z,101115.09
2023-02-21T22:05:18.364Z,101128.56
2023-02-21T22:07:44.742Z,101124.50
2023-02-21T22:10:11.530Z,101124.84
2023-02-21T22:12:38.551Z,101114.72
2023-02-21T22:15:05.671Z,101117.44
2023-02-21T22:17:31.900Z,101115.22
2023-02-21T22:19:58.152Z,101122.09
2023-02-21T22:22:24.671Z,101126.41
2023-02-21T22:24:51.389Z,101123.06
2023-02-21T22:27:17.685Z,101122.94
2023-02-21T22:29:44.022Z,101130.69
2023-02-21T22:32:10.451Z,101124.53
2023-02-21T22:34:36.796Z,101129.56
2023-02-21T22:37:03.971Z,101126.97
2023-02-21T22:39:30.236Z,101123.94
2023-02-21T22:41:56.662Z,101129.75
2023-02-21T22:44:26.221Z,101133.75
2023-02-21T22:46:59.765Z,101147.00
2023-02-21T22:49:26.503Z,101136.97
2023-02-21T22:51:52.945Z,101137.34
2023-02-21T22:54:19.348Z,101127.56
2023-02-21T22:56:51.208Z,101133.06
2023-02-21T22:59:19.021Z,101130.91
2023-02-21T23:01:45.321Z,101135.00
2023-02-21T23:04:15.926Z,101137.47
2023-02-21T23:06:43.617Z,101126.09
2023-02-21T23:09:13.304Z,101124.63
2023-02-21T23:11:46.869Z,101131.19
2023-02-21T23:14:15.880Z,101128.38
2023-02-21T23:16:43.252Z,101123.00
2023-02-21T23:19:09.656Z,101123.31
2023-02-21T23:21:36.670Z,101130.41
2023-02-21T23:24:03.411Z,101127.25
2023-02-21T23:26:29.813Z,101125.84
2023-02-21T23:28:56.042Z,101126.44
2023-02-21T23:31:22.874Z,101129.28
2023-02-21T23:33:49.264Z,101122.06
2023-02-21T23:36:22.323Z,101127.44
2023-02-21T23:38:49.635Z,101121.22
2023-02-21T23:41:16.677Z,101124.63
2023-02-21T23:43:46.190Z,101126.09
2023-02-21T23:46:17.232Z,101124.66
2023-02-21T23:48:44.963Z,101121.63
2023-02-21T23:51:11.249Z,101126.06
2023-02-21T23:53:37.868Z,101121.34
2023-02-21T23:56:05.763Z,101125.16
2023-02-21T23:58:32.015Z,101128.25
